createdAt,value
2022-08-20T00:01:01.774Z,18.81
2022-08-20T00:02:05.211Z,18.67
2022-08-20T00:03:08.644Z,18.64
2022-08-20T00:04:10.123Z,18.49
2022-08-20T00:05:14.162Z,18.46
2022-08-20T00:06:20.213Z,18.45
2022-08-20T00:07:22.060Z,18.36
2022-08-20T00:08:24.117Z,18.34
2022-08-20T00:09:25.694Z,18.34
2022-08-20T00:10:33.659Z,18.36
2022-08-20T00:11:35.511Z,18.37
2022-08-20T00:12:38.586Z,18.38
2022-08-20T00:13:44.893Z,18.34
2022-08-20T00:14:46.414Z,18.28
2022-08-20T00:15:48.255Z,18.20
2022-08-20T00:16:50.189Z,18.19
2022-08-20T00:17:53.129Z,18.17
2022-08-20T00:18:54.697Z,18.20
2022-08-20T00:19:56.223Z,18.23
2022-08-20T00:20:58.278Z,18.20
2022-08-20T00:21:59.800Z,18.20
2022-08-20T00:23:02.250Z,18.21
2022-08-20T00:24:04.354Z,18.21
2022-08-20T00:25:07.431Z,18.35
2022-08-20T00:26:10.437Z,18.33
2022-08-20T00:27:11.975Z,18.34
2022-08-20T00:28:13.933Z,18.37
2022-08-20T00:29:16.440Z,18.32
2022-08-20T00:30:22.888Z,18.27
2022-08-20T00:31:24.679Z,18.17
2022-08-20T00:32:26.185Z,18.15
2022-08-20T00:33:27.985Z,18.14
2022-08-20T00:34:30.219Z,18.13
2022-08-20T00:35:35.616Z,18.26
2022-08-20T00:36:37.183Z,18.50
2022-08-20T00:37:38.730Z,18.62
2022-08-20T00:38:43.219Z,18.68
2022-08-20T00:39:44.920Z,18.78
2022-08-20T00:40:53.411Z,18.69
2022-08-20T00:41:55.138Z,18.75
2022-08-20T00:42:59.891Z,18.77
2022-08-20T00:44:13.129Z,18.76
2022-08-20T00:45:16.378Z,18.70
2022-08-20T00:46:27.912Z,18.54
2022-08-20T00:47:33.900Z,18.60
2022-08-20T00:48:39.687Z,18.52
2022-08-20T00:49:41.270Z,18.39
2022-08-20T00:50:43.320Z,18.29
2022-08-20T00:51:53.320Z,18.29
2022-08-20T00:52:55.422Z,18.31
2022-08-20T00:54:14.183Z,18.36
2022-08-20T00:55:18.038Z,18.35
2022-08-20T00:56:19.678Z,18.47
2022-08-20T00:57:59.064Z,18.48
2022-08-20T00:58:56.582Z,18.44
2022-08-20T00:59:59.371Z,18.46
2022-08-20T01:01:01.677Z,18.42
2022-08-20T01:02:07.636Z,18.47
2022-08-20T01:03:11.399Z,18.57
2022-08-20T01:04:13.391Z,18.54
2022-08-20T01:05:15.012Z,18.54
2022-08-20T01:06:16.573Z,18.54
2022-08-20T01:07:20.704Z,18.45
2022-08-20T01:08:24.629Z,18.32
2022-08-20T01:09:50.144Z,18.10
2022-08-20T01:10:50.273Z,18.01
2022-08-20T01:11:52.081Z,17.97
2022-08-20T01:12:59.405Z,17.96
2022-08-20T01:15:06.055Z,17.90
2022-08-20T01:16:17.572Z,17.88
2022-08-20T01:17:23.730Z,17.89
2022-08-20T01:18:27.594Z,17.74
2022-08-20T01:19:37.883Z,17.77
2022-08-20T01:20:46.433Z,17.84
2022-08-20T01:21:49.777Z,17.86
2022-08-20T01:23:30.384Z,18.05
2022-08-20T01:24:40.483Z,18.19
2022-08-20T01:25:49.546Z,18.19
2022-08-20T01:26:51.395Z,18.27
2022-08-20T01:27:55.436Z,18.24
2022-08-20T01:29:01.967Z,18.36
2022-08-20T01:30:06.899Z,18.50
2022-08-20T01:31:14.948Z,18.50
2022-08-20T01:32:16.512Z,18.32
2022-08-20T01:33:22.423Z,18.36
2022-08-20T01:34:23.863Z,18.39
2022-08-20T01:35:26.654Z,18.24
2022-08-20T01:36:31.921Z,18.21
2022-08-20T01:37:33.379Z,18.32
2022-08-20T01:38:36.938Z,18.27
2022-08-20T01:39:38.410Z,18.21
2022-08-20T01:41:10.243Z,18.21
2022-08-20T01:42:15.423Z,18.14
2022-08-20T01:43:17.672Z,18.03
2022-08-20T01:44:20.773Z,18.01
2022-08-20T01:45:26.879Z,18.05
2022-08-20T01:46:36.654Z,18.05
2022-08-20T01:47:38.863Z,18.02
2022-08-20T01:48:44.572Z,17.98
2022-08-20T01:49:51.764Z,18.01
2022-08-20T01:51:07.831Z,17.95
2022-08-20T01:52:13.110Z,18.23
2022-08-20T01:53:24.908Z,18.24
2022-08-20T01:54:27.154Z,18.14
2022-08-20T01:55:28.655Z,18.06
2022-08-20T01:56:32.266Z,17.97
2022-08-20T01:57:35.232Z,17.79
2022-08-20T01:58:40.451Z,17.78
2022-08-20T01:59:42.916Z,17.79
2022-08-20T02:00:44.761Z,17.74
2022-08-20T02:01:47.153Z,17.76
2022-08-20T02:02:50.452Z,17.79
2022-08-20T02:03:53.893Z,17.78
2022-08-20T02:04:55.380Z,17.75
2022-08-20T02:06:01.171Z,17.83
2022-08-20T02:07:06.049Z,17.85
2022-08-20T02:08:07.539Z,17.85
2022-08-20T02:09:15.586Z,17.85
2022-08-20T02:10:19.193Z,17.89
2022-08-20T02:11:22.355Z,17.81
2022-08-20T02:12:23.983Z,17.80
2022-08-20T02:13:25.450Z,17.87
2022-08-20T02:14:28.375Z,17.89
2022-08-20T02:15:34.749Z,17.87
2022-08-20T02:16:43.941Z,17.85
2022-08-20T02:17:57.863Z,17.85
2022-08-20T02:19:04.819Z,17.86
2022-08-20T02:20:20.457Z,17.90
2022-08-20T02:21:24.046Z,18.17
2022-08-20T02:22:49.907Z,18.11
2022-08-20T02:23:52.640Z,18.04
2022-08-20T02:24:54.227Z,18.01
2022-08-20T02:25:55.852Z,17.96
2022-08-20T02:26:57.414Z,17.95
2022-08-20T02:28:02.582Z,18.03
2022-08-20T02:29:07.669Z,18.09
2022-08-20T02:30:21.182Z,18.07
2022-08-20T02:31:34.202Z,18.04
2022-08-20T02:32:37.570Z,17.97
2022-08-20T02:33:39.075Z,17.92
2022-08-20T02:34:41.162Z,18.00
2022-08-20T02:35:46.726Z,18.05
2022-08-20T02:36:49.289Z,18.02
2022-08-20T02:37:51.710Z,18.00
2022-08-20T02:38:53.209Z,17.97
2022-08-20T02:39:54.729Z,18.22
2022-08-20T02:40:56.286Z,18.20
2022-08-20T02:41:57.723Z,18.06
2022-08-20T02:43:01.062Z,17.98
2022-08-20T02:44:03.037Z,17.95
2022-08-20T02:45:06.191Z,17.92
2022-08-20T02:46:07.796Z,17.90
2022-08-20T02:47:09.232Z,17.88
2022-08-20T02:48:21.539Z,17.93
2022-08-20T02:49:23.080Z,17.94
2022-08-20T02:50:26.114Z,17.72
2022-08-20T02:51:28.648Z,17.62
2022-08-20T02:52:32.602Z,17.62
2022-08-20T02:53:38.355Z,17.69
2022-08-20T02:54:39.805Z,17.79
2022-08-20T02:55:41.349Z,17.83
2022-08-20T02:56:42.816Z,17.85
2022-08-20T02:57:44.468Z,17.85
2022-08-20T02:58:47.073Z,17.84
2022-08-20T02:59:52.190Z,17.86
2022-08-20T03:00:54.112Z,17.82
2022-08-20T03:01:59.327Z,17.84
2022-08-20T03:03:02.518Z,17.83
2022-08-20T03:04:04.428Z,17.82
2022-08-20T03:05:06.551Z,17.84
2022-08-20T03:06:10.664Z,17.87
2022-08-20T03:07:12.153Z,17.89
2022-08-20T03:08:14.886Z,17.90
2022-08-20T03:09:16.726Z,17.89
2022-08-20T03:10:18.183Z,17.92
2022-08-20T03:11:20.599Z,17.96
2022-08-20T03:12:22.054Z,17.98
2022-08-20T03:13:24.168Z,17.96
2022-08-20T03:14:25.951Z,17.92
2022-08-20T03:15:28.415Z,17.94
2022-08-20T03:16:29.952Z,17.94
2022-08-20T03:17:31.378Z,17.95
2022-08-20T03:18:41.202Z,17.94
2022-08-20T03:19:43.000Z,17.92
2022-08-20T03:20:45.907Z,17.97
2022-08-20T03:21:47.655Z,18.03
2022-08-20T03:22:52.004Z,18.07
2022-08-20T03:23:53.453Z,18.09
2022-08-20T03:24:55.549Z,18.07
2022-08-20T03:25:57.024Z,18.03
2022-08-20T03:26:58.784Z,18.04
2022-08-20T03:28:00.707Z,18.02
2022-08-20T03:29:02.667Z,18.01
2022-08-20T03:30:08.864Z,18.06
2022-08-20T03:31:12.631Z,18.02
2022-08-20T03:32:16.725Z,18.05
2022-08-20T03:33:20.156Z,18.12
2022-08-20T03:34:21.599Z,18.14
2022-08-20T03:35:26.365Z,18.15
2022-08-20T03:36:29.450Z,18.15
2022-08-20T03:37:33.324Z,18.15
2022-08-20T03:38:35.295Z,18.09
2022-08-20T03:39:36.809Z,18.03
2022-08-20T03:40:39.214Z,18.04
2022-08-20T03:41:40.635Z,18.10
2022-08-20T03:42:43.582Z,18.06
2022-08-20T03:43:45.701Z,18.15
2022-08-20T03:44:48.400Z,18.20
2022-08-20T03:46:00.604Z,18.16
2022-08-20T03:47:07.584Z,18.20
2022-08-20T03:48:12.241Z,18.13
2022-08-20T03:49:13.726Z,18.16
2022-08-20T03:50:22.745Z,18.17
2022-08-20T03:51:25.336Z,18.16
2022-08-20T03:52:29.314Z,18.13
2022-08-20T03:53:31.701Z,18.08
2022-08-20T03:54:33.426Z,18.02
2022-08-20T03:55:35.417Z,18.02
2022-08-20T03:56:37.224Z,18.06
2022-08-20T03:57:50.063Z,18.19
2022-08-20T03:58:51.574Z,18.30
2022-08-20T03:59:57.997Z,18.30
2022-08-20T04:01:01.021Z,18.29
2022-08-20T04:02:02.713Z,18.32
2022-08-20T04:03:05.724Z,18.32
2022-08-20T04:04:12.236Z,18.25
2022-08-20T04:05:14.483Z,18.14
2022-08-20T04:06:16.446Z,18.07
2022-08-20T04:07:25.994Z,18.02
2022-08-20T04:08:31.865Z,18.00
2022-08-20T04:09:33.303Z,17.91
2022-08-20T04:10:35.091Z,17.86
2022-08-20T04:11:37.528Z,17.83
2022-08-20T04:12:48.721Z,17.82
2022-08-20T04:13:54.687Z,17.80
2022-08-20T04:14:56.187Z,17.81
2022-08-20T04:16:00.933Z,17.84
2022-08-20T04:17:08.100Z,17.87
2022-08-20T04:18:10.819Z,17.90
2022-08-20T04:19:12.254Z,17.92
2022-08-20T04:20:18.473Z,17.98
2022-08-20T04:21:19.887Z,17.92
2022-08-20T04:22:21.308Z,17.88
2022-08-20T04:23:23.421Z,17.87
2022-08-20T04:24:31.626Z,17.87
2022-08-20T04:25:36.341Z,17.90
2022-08-20T04:26:37.917Z,17.89
2022-08-20T04:27:39.972Z,17.88
2022-08-20T04:28:41.793Z,17.98
2022-08-20T04:29:44.362Z,18.13
2022-08-20T04:30:51.639Z,18.19
2022-08-20T04:31:53.620Z,18.14
2022-08-20T04:32:56.170Z,18.15
2022-08-20T04:33:57.913Z,18.14
2022-08-20T04:35:00.802Z,18.12
2022-08-20T04:36:05.227Z,18.08
2022-08-20T04:37:16.687Z,18.05
2022-08-20T04:38:21.030Z,17.94
2022-08-20T04:39:22.834Z,17.99
2022-08-20T04:40:43.082Z,17.99
2022-08-20T04:41:44.597Z,18.02
2022-08-20T04:42:46.008Z,17.97
2022-08-20T04:43:54.516Z,17.99
2022-08-20T04:44:56.086Z,17.93
2022-08-20T04:46:00.913Z,17.92
2022-08-20T04:47:02.369Z,17.90
2022-08-20T04:48:05.714Z,17.88
2022-08-20T04:49:08.023Z,17.84
2022-08-20T04:50:11.043Z,17.82
2022-08-20T04:51:15.085Z,17.85
2022-08-20T04:52:16.570Z,17.86
2022-08-20T04:53:25.291Z,17.86
2022-08-20T04:54:27.568Z,17.81
2022-08-20T04:55:29.984Z,17.79
2022-08-20T04:56:43.408Z,17.80
2022-08-20T04:57:44.988Z,17.77
2022-08-20T04:58:49.047Z,17.77
2022-08-20T04:59:51.849Z,17.78
2022-08-20T05:00:56.218Z,17.80
2022-08-20T05:02:02.874Z,17.77
2022-08-20T05:03:06.946Z,17.79
2022-08-20T05:04:08.402Z,17.82
2022-08-20T05:05:10.549Z,17.83
2022-08-20T05:06:12.410Z,17.84
2022-08-20T05:07:16.692Z,17.85
2022-08-20T05:08:20.866Z,17.80
2022-08-20T05:09:22.344Z,17.81
2022-08-20T05:10:24.241Z,17.79
2022-08-20T05:11:35.539Z,17.80
2022-08-20T05:12:38.305Z,17.79
2022-08-20T05:13:40.688Z,17.81
2022-08-20T05:14:42.877Z,17.86
2022-08-20T05:15:47.540Z,17.88
2022-08-20T05:16:50.828Z,17.86
2022-08-20T05:17:57.223Z,17.86
2022-08-20T05:18:59.476Z,17.87
2022-08-20T05:20:00.964Z,17.86
2022-08-20T05:21:06.322Z,17.81
2022-08-20T05:22:07.983Z,17.84
2022-08-20T05:23:12.391Z,17.91
2022-08-20T05:24:14.175Z,17.95
2022-08-20T05:25:15.652Z,17.97
2022-08-20T05:26:20.223Z,18.00
2022-08-20T05:27:24.709Z,18.00
2022-08-20T05:28:32.557Z,17.98
2022-08-20T05:29:37.274Z,17.97
2022-08-20T05:30:41.104Z,17.95
2022-08-20T05:31:43.273Z,17.94
2022-08-20T05:32:47.022Z,17.96
2022-08-20T05:33:51.740Z,18.02
2022-08-20T05:34:54.744Z,18.05
2022-08-20T05:35:57.742Z,18.09
2022-08-20T05:37:00.267Z,18.09
2022-08-20T05:38:02.623Z,18.13
2022-08-20T05:39:04.248Z,18.12
2022-08-20T05:40:12.247Z,18.13
2022-08-20T05:41:13.740Z,18.02
2022-08-20T05:42:30.142Z,17.87
2022-08-20T05:43:33.547Z,17.90
2022-08-20T05:44:37.914Z,17.94
2022-08-20T05:45:41.157Z,17.94
2022-08-20T05:46:44.953Z,17.96
2022-08-20T05:47:48.152Z,17.96
2022-08-20T05:48:59.482Z,17.98
2022-08-20T05:50:05.545Z,17.98
2022-08-20T05:51:06.995Z,17.98
2022-08-20T05:52:08.483Z,17.96
2022-08-20T05:53:10.055Z,17.99
2022-08-20T05:55:13.803Z,18.02
2022-08-20T05:56:15.272Z,18.05
2022-08-20T05:57:19.041Z,18.05
2022-08-20T05:58:24.297Z,18.06
2022-08-20T05:59:26.692Z,18.04
2022-08-20T06:00:29.641Z,17.99
2022-08-20T06:01:33.060Z,17.97
2022-08-20T06:02:53.046Z,17.97
2022-08-20T06:04:13.073Z,17.90
2022-08-20T06:05:14.588Z,17.88
2022-08-20T06:06:18.323Z,17.89
2022-08-20T06:07:38.619Z,17.94
2022-08-20T06:08:41.433Z,17.99
2022-08-20T06:09:44.473Z,17.98
2022-08-20T06:10:46.292Z,18.00
2022-08-20T06:11:47.816Z,18.03
2022-08-20T06:12:49.422Z,18.09
2022-08-20T06:13:50.890Z,18.13
2022-08-20T06:14:52.365Z,18.13
2022-08-20T06:15:53.846Z,18.16
2022-08-20T06:16:57.697Z,18.09
2022-08-20T06:18:01.368Z,18.03
2022-08-20T06:19:03.347Z,18.03
2022-08-20T06:20:08.188Z,18.05
2022-08-20T06:21:11.082Z,18.12
2022-08-20T06:22:19.006Z,18.15
2022-08-20T06:23:26.002Z,18.15
2022-08-20T06:24:27.596Z,18.17
2022-08-20T06:25:29.907Z,18.14
2022-08-20T06:26:31.809Z,18.13
2022-08-20T06:27:34.247Z,18.13
2022-08-20T06:28:37.530Z,18.16
2022-08-20T06:29:39.009Z,18.20
2022-08-20T06:30:40.957Z,18.17
2022-08-20T06:31:42.414Z,18.13
2022-08-20T06:32:43.944Z,18.17
2022-08-20T06:33:45.555Z,18.21
2022-08-20T06:34:50.350Z,18.21
2022-08-20T06:35:52.976Z,18.24
2022-08-20T06:36:55.722Z,18.29
2022-08-20T06:38:00.223Z,18.33
2022-08-20T06:39:01.673Z,18.37
2022-08-20T06:40:16.735Z,18.10
2022-08-20T06:41:18.449Z,18.10
2022-08-20T06:42:21.173Z,18.15
2022-08-20T06:43:22.668Z,18.21
2022-08-20T06:44:24.664Z,18.27
2022-08-20T06:45:31.865Z,18.34
2022-08-20T06:46:35.941Z,18.43
2022-08-20T06:47:42.867Z,18.53
2022-08-20T06:48:44.375Z,18.61
2022-08-20T06:49:47.571Z,18.69
2022-08-20T06:50:49.127Z,18.75
2022-08-20T06:51:52.081Z,18.82
2022-08-20T06:52:54.032Z,18.86
2022-08-20T06:53:56.195Z,18.68
2022-08-20T06:54:57.655Z,18.80
2022-08-20T06:55:59.370Z,18.82
2022-08-20T06:57:04.491Z,18.66
2022-08-20T06:58:08.358Z,18.66
2022-08-20T06:59:30.385Z,18.62
2022-08-20T07:00:33.353Z,18.74
2022-08-20T07:01:35.681Z,18.83
2022-08-20T07:02:37.383Z,18.90
2022-08-20T07:03:42.351Z,19.00
2022-08-20T07:04:57.906Z,19.08
2022-08-20T07:05:59.451Z,19.13
2022-08-20T07:07:01.130Z,19.17
2022-08-20T07:08:03.182Z,19.21
2022-08-20T07:09:04.642Z,19.26
2022-08-20T07:10:09.070Z,19.32
2022-08-20T07:11:12.190Z,19.30
2022-08-20T07:12:14.405Z,19.27
2022-08-20T07:13:16.397Z,19.29
2022-08-20T07:14:19.176Z,19.31
2022-08-20T07:15:23.071Z,19.43
2022-08-20T07:16:25.432Z,19.43
2022-08-20T07:17:26.938Z,19.52
2022-08-20T07:18:29.172Z,19.55
2022-08-20T07:19:31.450Z,19.58
2022-08-20T07:20:36.775Z,19.65
2022-08-20T07:21:38.288Z,19.66
2022-08-20T07:22:40.892Z,19.77
2022-08-20T07:23:42.566Z,19.88
2022-08-20T07:24:48.901Z,19.84
2022-08-20T07:25:50.881Z,19.88
2022-08-20T07:26:52.431Z,19.78
2022-08-20T07:28:04.138Z,19.87
2022-08-20T07:29:05.682Z,19.87
2022-08-20T07:30:28.638Z,19.87
2022-08-20T07:31:48.891Z,20.07
2022-08-20T07:32:51.440Z,20.02
2022-08-20T07:33:52.972Z,20.03
2022-08-20T07:34:55.970Z,19.88
2022-08-20T07:35:59.317Z,19.95
2022-08-20T07:37:00.796Z,20.00
2022-08-20T07:38:05.110Z,19.88
2022-08-20T07:39:07.003Z,19.76
2022-08-20T07:40:16.135Z,19.63
2022-08-20T07:41:18.514Z,19.77
2022-08-20T07:42:20.028Z,19.98
2022-08-20T07:43:24.083Z,20.15
2022-08-20T07:44:31.025Z,20.39
2022-08-20T07:45:33.182Z,20.64
2022-08-20T07:46:34.952Z,20.67
2022-08-20T07:47:41.770Z,20.73
2022-08-20T07:48:49.638Z,20.57
2022-08-20T07:49:51.139Z,20.75
2022-08-20T07:50:54.163Z,20.84
2022-08-20T07:51:56.631Z,20.87
2022-08-20T07:53:00.438Z,20.77
2022-08-20T07:54:02.021Z,20.79
2022-08-20T07:55:08.061Z,20.94
2022-08-20T07:56:13.516Z,20.92
2022-08-20T07:57:17.293Z,20.91
2022-08-20T07:58:22.416Z,20.91
2022-08-20T07:59:30.372Z,20.85
2022-08-20T08:00:32.310Z,20.61
2022-08-20T08:01:33.823Z,20.52
2022-08-20T08:02:36.694Z,20.46
2022-08-20T08:03:48.955Z,20.38
2022-08-20T08:04:50.994Z,20.38
2022-08-20T08:05:52.471Z,20.44
2022-08-20T08:06:56.184Z,20.50
2022-08-20T08:07:58.705Z,20.44
2022-08-20T08:09:06.265Z,20.51
2022-08-20T08:10:11.221Z,20.16
2022-08-20T08:11:12.898Z,20.20
2022-08-20T08:12:16.009Z,20.40
2022-08-20T08:13:17.450Z,20.37
2022-08-20T08:14:23.676Z,20.36
2022-08-20T08:15:29.406Z,20.52
2022-08-20T08:16:32.787Z,20.53
2022-08-20T08:17:35.256Z,20.52
2022-08-20T08:18:43.169Z,20.41
2022-08-20T08:19:49.212Z,20.54
2022-08-20T08:20:53.620Z,20.57
2022-08-20T08:21:57.412Z,20.50
2022-08-20T08:23:00.735Z,20.37
2022-08-20T08:24:02.671Z,20.43
2022-08-20T08:25:05.664Z,20.43
2022-08-20T08:26:07.103Z,20.48
2022-08-20T08:27:21.804Z,20.64
2022-08-20T08:28:24.158Z,20.72
2022-08-20T08:29:26.285Z,20.76
2022-08-20T08:30:28.438Z,20.66
2022-08-20T08:31:30.067Z,20.67
2022-08-20T08:32:32.684Z,20.68
2022-08-20T08:33:34.549Z,20.55
2022-08-20T08:34:37.327Z,20.37
2022-08-20T08:35:46.641Z,20.33
2022-08-20T08:36:48.207Z,20.33
2022-08-20T08:37:49.984Z,20.36
2022-08-20T08:38:51.521Z,20.39
2022-08-20T08:39:52.999Z,20.35
2022-08-20T08:41:00.215Z,20.29
2022-08-20T08:42:05.106Z,20.29
2022-08-20T08:43:07.043Z,20.29
2022-08-20T08:44:21.782Z,20.34
2022-08-20T08:45:27.564Z,20.40
2022-08-20T08:46:32.749Z,20.48
2022-08-20T08:47:37.857Z,20.49
2022-08-20T08:48:46.437Z,20.48
2022-08-20T08:49:48.413Z,20.45
2022-08-20T08:50:54.656Z,20.48
2022-08-20T08:52:07.111Z,20.45
2022-08-20T08:53:18.646Z,20.43
2022-08-20T08:54:25.101Z,20.42
2022-08-20T08:55:28.380Z,20.45
2022-08-20T08:56:30.895Z,20.48
2022-08-20T08:57:32.876Z,20.50
2022-08-20T08:58:35.275Z,20.52
2022-08-20T09:00:01.545Z,20.56
2022-08-20T09:01:01.689Z,20.57
2022-08-20T09:02:06.637Z,20.56
2022-08-20T09:03:10.085Z,20.56
2022-08-20T09:04:16.701Z,20.55
2022-08-20T09:05:27.535Z,20.59
2022-08-20T09:06:29.078Z,20.55
2022-08-20T09:07:33.379Z,20.44
2022-08-20T09:08:48.564Z,20.51
2022-08-20T09:09:51.186Z,20.54
2022-08-20T09:10:52.712Z,20.49
2022-08-20T09:12:01.968Z,20.51
2022-08-20T09:13:03.888Z,20.56
2022-08-20T09:14:05.716Z,20.55
2022-08-20T09:15:07.452Z,20.56
2022-08-20T09:16:10.036Z,20.57
2022-08-20T09:17:11.644Z,20.50
2022-08-20T09:18:13.169Z,20.56
2022-08-20T09:19:15.012Z,20.57
2022-08-20T09:20:18.234Z,20.41
2022-08-20T09:21:19.990Z,20.56
2022-08-20T09:22:23.151Z,20.68
2022-08-20T09:23:24.645Z,20.70
2022-08-20T09:24:26.466Z,20.70
2022-08-20T09:25:27.920Z,20.63
2022-08-20T09:26:29.423Z,20.59
2022-08-20T09:27:31.470Z,20.65
2022-08-20T09:28:34.897Z,20.66
2022-08-20T09:29:37.516Z,20.68
2022-08-20T09:30:39.121Z,20.68
2022-08-20T09:31:40.791Z,20.74
2022-08-20T09:32:43.143Z,20.78
2022-08-20T09:33:44.566Z,20.83
2022-08-20T09:34:52.604Z,20.85
2022-08-20T09:35:54.138Z,20.59
2022-08-20T09:36:55.579Z,20.40
2022-08-20T09:37:57.209Z,20.33
2022-08-20T09:38:58.848Z,20.33
2022-08-20T09:40:00.977Z,20.44
2022-08-20T09:41:02.499Z,20.55
2022-08-20T09:42:17.870Z,20.60
2022-08-20T09:43:19.394Z,20.65
2022-08-20T09:44:20.921Z,20.69
2022-08-20T09:45:22.893Z,20.67
2022-08-20T09:46:27.248Z,20.70
2022-08-20T09:47:29.131Z,20.63
2022-08-20T09:48:32.258Z,20.56
2022-08-20T09:49:33.944Z,20.65
2022-08-20T09:50:36.751Z,20.60
2022-08-20T09:51:38.448Z,20.70
2022-08-20T09:52:44.414Z,20.75
2022-08-20T09:53:46.400Z,20.74
2022-08-20T09:54:49.015Z,20.74
2022-08-20T09:55:54.413Z,20.80
2022-08-20T09:56:58.171Z,20.89
2022-08-20T09:58:01.020Z,20.96
2022-08-20T09:59:03.096Z,21.01
2022-08-20T10:00:12.845Z,21.11
2022-08-20T10:01:16.981Z,21.23
2022-08-20T10:02:18.516Z,21.21
2022-08-20T10:03:20.313Z,21.27
2022-08-20T10:04:21.857Z,21.28
2022-08-20T10:05:23.651Z,21.33
2022-08-20T10:06:25.270Z,21.43
2022-08-20T10:07:26.784Z,21.36
2022-08-20T10:08:28.370Z,21.34
2022-08-20T10:09:30.433Z,21.37
2022-08-20T10:10:31.924Z,21.40
2022-08-20T10:11:33.556Z,21.48
2022-08-20T10:12:35.081Z,21.54
2022-08-20T10:13:36.569Z,21.62
2022-08-20T10:14:38.350Z,21.63
2022-08-20T10:15:39.929Z,21.69
2022-08-20T10:16:43.425Z,21.63
2022-08-20T10:17:45.057Z,21.62
2022-08-20T10:18:49.146Z,21.41
2022-08-20T10:19:50.953Z,21.37
2022-08-20T10:20:52.406Z,21.42
2022-08-20T10:21:54.583Z,21.45
2022-08-20T10:22:56.043Z,21.41
2022-08-20T10:23:58.084Z,21.40
2022-08-20T10:24:59.889Z,21.44
2022-08-20T10:26:01.745Z,21.34
2022-08-20T10:27:03.283Z,21.36
2022-08-20T10:28:05.221Z,21.46
2022-08-20T10:29:06.644Z,21.42
2022-08-20T10:30:09.194Z,21.50
2022-08-20T10:31:12.682Z,21.56
2022-08-20T10:32:16.160Z,21.63
2022-08-20T10:33:17.623Z,21.62
2022-08-20T10:34:19.460Z,21.50
2022-08-20T10:35:21.515Z,21.47
2022-08-20T10:36:23.030Z,21.61
2022-08-20T10:37:25.854Z,21.61
2022-08-20T10:38:27.229Z,21.51
2022-08-20T10:39:28.681Z,21.46
2022-08-20T10:40:33.379Z,21.45
2022-08-20T10:41:38.745Z,21.54
2022-08-20T10:42:42.720Z,21.54
2022-08-20T10:43:44.296Z,21.60
2022-08-20T10:44:45.967Z,21.67
2022-08-20T10:45:47.720Z,21.69
2022-08-20T10:46:49.196Z,21.76
2022-08-20T10:47:55.054Z,21.75
2022-08-20T10:48:56.696Z,21.80
2022-08-20T10:50:00.746Z,21.81
2022-08-20T10:51:02.583Z,21.74
2022-08-20T10:52:06.091Z,21.70
2022-08-20T10:53:07.646Z,21.67
2022-08-20T10:54:12.504Z,21.77
2022-08-20T10:55:15.032Z,21.87
2022-08-20T10:56:16.837Z,21.98
2022-08-20T10:57:24.328Z,22.08
2022-08-20T10:58:27.014Z,22.09
2022-08-20T10:59:41.440Z,22.18
2022-08-20T11:00:43.250Z,22.30
2022-08-20T11:01:44.773Z,22.34
2022-08-20T11:02:46.677Z,22.29
2022-08-20T11:03:48.186Z,22.37
2022-08-20T11:04:50.831Z,22.42
2022-08-20T11:05:52.605Z,22.36
2022-08-20T11:06:54.088Z,22.36
2022-08-20T11:07:56.829Z,22.34
2022-08-20T11:08:58.475Z,22.39
2022-08-20T11:10:00.267Z,22.34
2022-08-20T11:11:02.452Z,22.32
2022-08-20T11:12:04.354Z,22.39
2022-08-20T11:13:07.293Z,22.42
2022-08-20T11:14:08.813Z,22.49
2022-08-20T11:15:10.628Z,22.49
2022-08-20T11:16:12.451Z,22.52
2022-08-20T11:17:19.918Z,22.50
2022-08-20T11:18:21.423Z,22.45
2022-08-20T11:19:22.912Z,22.37
2022-08-20T11:20:28.032Z,22.30
2022-08-20T11:21:29.848Z,22.30
2022-08-20T11:22:31.577Z,22.34
2022-08-20T11:23:33.290Z,22.38
2022-08-20T11:24:35.256Z,22.45
2022-08-20T11:25:36.802Z,22.53
2022-08-20T11:26:38.808Z,22.52
2022-08-20T11:27:46.361Z,22.44
2022-08-20T11:28:47.894Z,22.41
2022-08-20T11:29:49.368Z,22.37
2022-08-20T11:30:52.083Z,22.37
2022-08-20T11:31:53.863Z,22.42
2022-08-20T11:32:56.551Z,22.40
2022-08-20T11:33:58.055Z,22.55
2022-08-20T11:34:59.503Z,22.49
2022-08-20T11:36:00.986Z,22.50
2022-08-20T11:37:02.835Z,22.54
2022-08-20T11:38:04.718Z,22.71
2022-08-20T11:39:06.185Z,22.75
2022-08-20T11:40:09.218Z,22.61
2022-08-20T11:41:10.675Z,22.57
2022-08-20T11:42:12.661Z,22.53
2022-08-20T11:43:16.386Z,22.51
2022-08-20T11:44:21.164Z,22.51
2022-08-20T11:45:23.328Z,22.51
2022-08-20T11:46:28.493Z,22.57
2022-08-20T11:47:31.061Z,22.61
2022-08-20T11:48:32.535Z,22.60
2022-08-20T11:49:36.486Z,22.59
2022-08-20T11:50:37.979Z,22.57
2022-08-20T11:51:49.232Z,22.57
2022-08-20T11:52:51.734Z,22.60
2022-08-20T11:53:53.292Z,22.61
2022-08-20T11:54:55.240Z,22.62
2022-08-20T11:55:56.814Z,22.51
2022-08-20T11:56:59.821Z,22.47
2022-08-20T11:58:01.356Z,22.45
2022-08-20T11:59:03.039Z,22.37
2022-08-20T12:00:12.774Z,22.42
2022-08-20T12:01:15.107Z,22.43
2022-08-20T12:02:16.657Z,22.45
2022-08-20T12:03:18.298Z,22.47
2022-08-20T12:04:20.774Z,22.38
2022-08-20T12:05:23.286Z,22.35
2022-08-20T12:06:25.074Z,22.45
2022-08-20T12:07:26.565Z,22.49
2022-08-20T12:08:29.407Z,22.54
2022-08-20T12:09:30.797Z,22.56
2022-08-20T12:10:32.327Z,22.56
2022-08-20T12:11:34.130Z,22.57
2022-08-20T12:12:36.708Z,22.62
2022-08-20T12:13:47.911Z,22.70
2022-08-20T12:14:52.345Z,22.82
2022-08-20T12:15:54.573Z,22.86
2022-08-20T12:16:56.339Z,22.98
2022-08-20T12:17:57.956Z,23.04
2022-08-20T12:18:59.393Z,23.05
2022-08-20T12:20:04.364Z,23.12
2022-08-20T12:21:06.043Z,23.24
2022-08-20T12:22:24.530Z,23.23
2022-08-20T12:23:26.883Z,23.17
2022-08-20T12:24:28.862Z,23.17
2022-08-20T12:25:32.794Z,23.12
2022-08-20T12:26:34.639Z,23.10
2022-08-20T12:27:37.567Z,23.03
2022-08-20T12:28:39.265Z,22.91
2022-08-20T12:29:42.861Z,22.90
2022-08-20T12:30:44.335Z,22.93
2022-08-20T12:31:46.110Z,22.95
2022-08-20T12:32:48.402Z,22.98
2022-08-20T12:33:49.852Z,22.92
2022-08-20T12:34:51.952Z,22.85
2022-08-20T12:35:53.609Z,22.82
2022-08-20T12:37:10.043Z,22.80
2022-08-20T12:38:13.262Z,22.78
2022-08-20T12:39:14.753Z,22.71
2022-08-20T12:40:31.714Z,22.65
2022-08-20T12:41:34.747Z,22.59
2022-08-20T12:42:37.572Z,22.52
2022-08-20T12:43:38.924Z,22.55
2022-08-20T12:44:40.596Z,22.56
2022-08-20T12:45:42.180Z,22.58
2022-08-20T12:46:43.940Z,22.59
2022-08-20T12:47:47.192Z,22.51
2022-08-20T12:48:48.718Z,22.55
2022-08-20T12:50:02.688Z,22.60
2022-08-20T12:51:06.284Z,22.56
2022-08-20T12:52:08.095Z,22.54
2022-08-20T12:53:09.570Z,22.51
2022-08-20T12:54:11.007Z,22.55
2022-08-20T12:55:14.811Z,22.60
2022-08-20T12:56:16.602Z,22.64
2022-08-20T12:57:36.600Z,22.67
2022-08-20T12:58:38.331Z,22.62
2022-08-20T12:59:39.776Z,22.67
2022-08-20T13:00:48.644Z,22.73
2022-08-20T13:01:53.866Z,22.75
2022-08-20T13:02:56.916Z,22.73
2022-08-20T13:03:58.787Z,22.71
2022-08-20T13:05:05.440Z,22.73
2022-08-20T13:06:07.575Z,22.68
2022-08-20T13:07:12.858Z,22.74
2022-08-20T13:08:14.518Z,22.77
2022-08-20T13:09:16.768Z,22.75
2022-08-20T13:10:45.636Z,22.74
2022-08-20T13:11:49.261Z,22.77
2022-08-20T13:12:51.390Z,22.80
2022-08-20T13:13:52.830Z,22.80
2022-08-20T13:14:54.325Z,22.77
2022-08-20T13:15:56.178Z,22.79
2022-08-20T13:17:00.884Z,22.84
2022-08-20T13:18:04.160Z,22.87
2022-08-20T13:19:05.711Z,22.81
2022-08-20T13:20:10.942Z,22.79
2022-08-20T13:21:12.841Z,22.80
2022-08-20T13:22:14.569Z,22.82
2022-08-20T13:23:16.586Z,22.88
2022-08-20T13:24:18.055Z,22.87
2022-08-20T13:25:20.677Z,22.86
2022-08-20T13:26:22.500Z,22.83
2022-08-20T13:27:24.673Z,22.81
2022-08-20T13:28:26.147Z,22.83
2022-08-20T13:29:27.607Z,22.80
2022-08-20T13:30:29.191Z,22.80
2022-08-20T13:31:31.036Z,22.79
2022-08-20T13:32:32.531Z,22.54
2022-08-20T13:33:33.983Z,22.51
2022-08-20T13:34:35.458Z,22.68
2022-08-20T13:35:36.965Z,22.89
2022-08-20T13:36:39.137Z,22.92
2022-08-20T13:37:42.257Z,22.98
2022-08-20T13:38:43.765Z,22.98
2022-08-20T13:39:46.368Z,22.99
2022-08-20T13:40:48.914Z,22.92
2022-08-20T13:41:50.804Z,22.95
2022-08-20T13:42:52.271Z,22.93
2022-08-20T13:43:53.761Z,22.91
2022-08-20T13:44:55.280Z,22.97
2022-08-20T13:45:57.167Z,23.03